Time;durP1;ratioP1;P1;durP2;ratioP2;P2;SDS_P1;SDS_P2;PMS_P1;PMS_P2;Temp;Humidity;BMP_temperature;BMP_pressure;BME280_temperature;BME280_humidity;BME280_pressure;Samples;Min_cycle;Max_cycle;Signal;HPM_P1;HPM_P2
2023/12/14 00:02:02;;;;;;;7.07;5.17;;;;;;;9.40;100.00;97098.50;4066360;29;20211;-94
2023/12/14 00:04:07;;;;;;;7.53;5.80;;;;;;;9.39;100.00;97089.03;4062173;29;21200;-94
2023/12/14 00:06:10;;;;;;;6.10;5.00;;;;;;;9.42;100.00;97096.59;4076334;29;20677;-95
2023/12/14 00:08:13;;;;;;;6.53;5.40;;;;;;;9.42;100.00;97096.59;4065376;29;20732;-94
2023/12/14 00:10:17;;;;;;;8.00;5.70;;;;;;;9.43;100.00;97100.84;4081211;29;21251;-94
2023/12/14 00:12:21;;;;;;;6.33;5.13;;;;;;;9.43;100.00;97101.66;4066197;29;20690;-95
2023/12/14 00:14:27;;;;;;;10.02;5.85;;;;;;;9.43;100.00;97095.66;4082368;29;21196;-95
2023/12/14 00:16:30;;;;;;;6.33;5.30;;;;;;;9.42;100.00;97107.81;4082820;29;20202;-94
2023/12/14 00:18:32;;;;;;;6.22;4.95;;;;;;;9.43;100.00;97108.66;4068248;29;20627;-95
2023/12/14 00:20:37;;;;;;;7.55;5.95;;;;;;;9.43;100.00;97114.69;4072981;29;20203;-94
2023/12/14 00:22:40;;;;;;;6.80;5.40;;;;;;;9.45;100.00;97122.38;4089250;28;20206;-94
2023/12/14 00:24:43;;;;;;;6.93;4.93;;;;;;;9.45;100.00;97127.56;4077306;29;21199;-94
2023/12/14 00:26:47;;;;;;;6.20;4.80;;;;;;;9.45;100.00;97128.38;4073886;29;20665;-94
2023/12/14 00:28:50;;;;;;;7.45;4.85;;;;;;;9.46;100.00;97127.44;4081937;29;21051;-95
2023/12/14 00:31:02;;;;;;;6.27;4.57;;;;;;;9.47;100.00;97125.66;4079503;29;20230;-94
2023/12/14 00:33:05;;;;;;;5.70;4.33;;;;;;;9.44;100.00;97118.09;4094592;29;20620;-91
2023/12/14 00:35:09;;;;;;;7.45;5.00;;;;;;;9.47;100.00;97128.25;4090559;28;20665;-94
2023/12/14 00:37:13;;;;;;;5.97;4.75;;;;;;;9.46;100.00;97124.84;4082118;29;20271;-94
2023/12/14 00:39:16;;;;;;;6.28;5.20;;;;;;;9.48;100.00;97130.75;4078183;29;20217;-94
2023/12/14 00:41:20;;;;;;;5.78;4.45;;;;;;;9.50;100.00;97136.69;4072298;29;20207;-96
2023/12/14 00:43:25;;;;;;;7.27;5.00;;;;;;;9.50;100.00;97134.06;4057862;29;20203;-96
2023/12/14 00:45:29;;;;;;;6.45;4.60;;;;;;;9.50;100.00;97134.06;4069207;29;20630;-91
2023/12/14 00:47:33;;;;;;;8.45;6.70;;;;;;;9.50;100.00;97143.63;4094714;29;20217;-96
2023/12/14 00:49:40;;;;;;;10.30;8.30;;;;;;;9.46;100.00;97137.84;4095086;29;20218;-95
2023/12/14 00:51:45;;;;;;;8.07;7.28;;;;;;;9.45;100.00;97141.41;4071829;29;20626;-94
2023/12/14 00:53:50;;;;;;;10.40;7.15;;;;;;;9.44;100.00;97138.91;4072401;29;20212;-96
2023/12/14 00:55:54;;;;;;;7.43;6.63;;;;;;;9.43;100.00;97145.09;4073908;29;20698;-96
2023/12/14 00:57:58;;;;;;;11.57;7.47;;;;;;;9.45;100.00;97146.59;4082458;29;20629;-91
2023/12/14 01:00:03;;;;;;;7.83;6.90;;;;;;;9.43;100.00;97148.50;4064039;29;20640;-93
2023/12/14 01:02:07;;;;;;;7.20;6.17;;;;;;;9.47;100.00;97157.75;4074147;29;21197;-96
2023/12/14 01:04:11;;;;;;;6.20;5.47;;;;;;;9.48;100.00;97161.97;4063589;29;20638;-95
2023/12/14 01:06:14;;;;;;;7.90;6.28;;;;;;;9.48;100.00;97164.56;4064443;29;20233;-95
2023/12/14 01:08:17;;;;;;;8.50;6.00;;;;;;;9.49;100.00;97173.22;4081288;29;20222;-96
2023/12/14 01:10:22;;;;;;;7.97;6.75;;;;;;;9.49;100.00;97176.66;4079952;29;20705;-94
2023/12/14 01:12:28;;;;;;;7.70;6.17;;;;;;;9.52;100.00;97178.19;4062189;29;20258;-96
2023/12/14 01:14:34;;;;;;;8.60;6.30;;;;;;;9.51;100.00;97186.94;4091478;28;20652;-96
2023/12/14 01:16:40;;;;;;;7.40;6.23;;;;;;;9.52;100.00;97184.22;4088860;28;20645;-93
2023/12/14 01:18:43;;;;;;;8.98;6.88;;;;;;;9.51;100.00;97181.75;4067470;29;20623;-96
2023/12/14 01:20:47;;;;;;;7.40;6.50;;;;;;;9.52;100.00;97183.41;4074853;29;20284;-91
2023/12/14 01:22:51;;;;;;;7.10;6.40;;;;;;;9.51;100.00;97190.38;4069415;28;20634;-90
2023/12/14 01:24:55;;;;;;;8.25;6.20;;;;;;;9.51;100.00;97192.16;4084693;28;20296;-93
2023/12/14 01:26:59;;;;;;;8.23;6.80;;;;;;;9.51;100.00;97195.56;4078101;29;20238;-93
2023/12/14 01:29:03;;;;;;;7.17;6.47;;;;;;;9.49;100.00;97194.88;4073670;28;20670;-95
2023/12/14 01:31:06;;;;;;;7.32;6.32;;;;;;;9.49;100.00;97204.47;4070894;29;20663;-91
2023/12/14 01:33:10;;;;;;;7.70;6.60;;;;;;;9.51;100.00;97210.38;4075862;29;20202;-95
2023/12/14 01:35:12;;;;;;;8.07;6.45;;;;;;;9.51;100.00;97216.38;4072603;29;20210;-94
2023/12/14 01:37:17;;;;;;;9.90;7.03;;;;;;;9.52;100.00;97219.84;4058691;29;20210;-96
2023/12/14 01:39:20;;;;;;;8.77;7.15;;;;;;;9.53;100.00;97218.88;4083217;29;20221;-96
2023/12/14 01:41:25;;;;;;;8.53;6.90;;;;;;;9.53;100.00;97224.94;4090531;29;20217;-91
2023/12/14 01:43:38;;;;;;;7.90;5.95;;;;;;;9.53;100.00;97229.28;4108505;28;20659;-94
2023/12/14 01:45:41;;;;;;;8.20;6.63;;;;;;;9.54;100.00;97236.16;4074576;29;20249;-95
2023/12/14 01:47:45;;;;;;;7.80;6.40;;;;;;;9.54;100.00;97228.34;4075093;29;20734;-96
2023/12/14 01:49:49;;;;;;;7.82;6.45;;;;;;;9.54;100.00;97238.75;4090843;28;20676;-96
2023/12/14 01:51:52;;;;;;;9.13;6.47;;;;;;;9.54;100.00;97238.75;4085010;28;20225;-96
2023/12/14 01:53:56;;;;;;;7.30;6.30;;;;;;;9.55;100.00;97240.41;4076362;29;20210;-96
2023/12/14 01:55:59;;;;;;;8.90;7.20;;;;;;;9.54;100.00;97249.16;4075909;29;20666;-95
2023/12/14 01:58:03;;;;;;;8.60;6.65;;;;;;;9.54;100.00;97243.97;4081042;29;20218;-94
2023/12/14 02:00:17;;;;;;;9.37;6.87;;;;;;;9.52;100.00;97243.25;4080237;29;20198;-96
2023/12/14 02:02:21;;;;;;;8.23;7.13;;;;;;;9.54;100.00;97251.78;4067505;29;20763;-94
2023/12/14 02:04:25;;;;;;;9.30;6.43;;;;;;;9.54;100.00;97254.38;4065765;29;20639;-96
2023/12/14 02:06:29;;;;;;;8.48;6.97;;;;;;;9.52;100.00;97251.88;4064728;29;20204;-94
2023/12/14 02:08:33;;;;;;;14.02;6.88;;;;;;;9.51;100.00;97250.22;4065377;29;20222;-94
2023/12/14 02:10:36;;;;;;;8.07;6.87;;;;;;;9.54;100.00;97267.38;4074320;29;20624;-93
2023/12/14 02:12:38;;;;;;;9.25;7.10;;;;;;;9.54;100.00;97259.56;4079530;29;20665;-94
2023/12/14 02:14:41;;;;;;;12.75;6.60;;;;;;;9.55;100.00;97269.06;4072664;29;20235;-95
2023/12/14 02:16:46;;;;;;;9.50;6.93;;;;;;;9.56;100.00;97263.72;4088997;28;20296;-94
2023/12/14 02:18:48;;;;;;;9.35;7.47;;;;;;;9.55;100.00;97267.25;4076491;29;20230;-95
2023/12/14 02:20:52;;;;;;;8.18;6.55;;;;;;;9.51;100.00;97265.84;4076836;29;20206;-93
2023/12/14 02:22:58;;;;;;;10.43;7.60;;;;;;;9.48;100.00;97263.47;4063139;29;20309;-95
2023/12/14 02:25:08;;;;;;;11.40;8.00;;;;;;;9.44;100.00;97269.03;4062391;29;20234;-95
2023/12/14 02:27:12;;;;;;;14.57;8.40;;;;;;;9.43;100.00;97273.41;4070363;29;20626;-95
2023/12/14 02:29:16;;;;;;;11.98;7.38;;;;;;;9.45;100.00;97275.91;4085513;29;20210;-96
2023/12/14 02:31:20;;;;;;;10.60;6.80;;;;;;;9.45;100.00;97273.28;4075153;29;20265;-96
2023/12/14 02:33:24;;;;;;;9.43;7.03;;;;;;;9.46;100.00;97286.19;4077278;29;21037;-94
2023/12/14 02:35:26;;;;;;;10.63;8.00;;;;;;;9.49;100.00;97287.75;4059942;29;20758;-95
2023/12/14 02:37:30;;;;;;;10.57;8.23;;;;;;;9.49;100.00;97283.34;4088323;28;20212;-93
2023/12/14 02:39:35;;;;;;;9.23;7.17;;;;;;;9.51;100.00;97286.66;4071132;29;20635;-94
2023/12/14 02:41:37;;;;;;;10.13;8.10;;;;;;;9.51;100.00;97297.06;4060720;29;20639;-94
2023/12/14 02:43:41;;;;;;;9.32;7.22;;;;;;;9.50;100.00;97290.22;4074316;29;20216;-94
2023/12/14 02:45:43;;;;;;;9.98;6.97;;;;;;;9.52;100.00;97297.91;4067992;29;20209;-94
2023/12/14 02:47:48;;;;;;;11.00;7.93;;;;;;;9.51;100.00;97297.06;4057177;29;20428;-94
2023/12/14 02:49:51;;;;;;;9.95;7.93;;;;;;;9.51;100.00;97296.25;4076742;29;20633;-94
2023/12/14 02:51:54;;;;;;;9.50;7.40;;;;;;;9.52;100.00;97297.91;4073222;29;20231;-96
2023/12/14 02:53:57;;;;;;;8.13;7.20;;;;;;;9.50;100.00;97303.25;4088090;28;20210;-94
2023/12/14 02:56:04;;;;;;;10.00;7.70;;;;;;;9.50;100.00;97305.84;4076513;29;20627;-92
2023/12/14 02:58:08;;;;;;;10.30;7.37;;;;;;;9.53;100.00;97302.16;4093911;28;20405;-94
2023/12/14 03:00:13;;;;;;;8.70;7.30;;;;;;;9.50;100.00;97305.84;4082131;29;20633;-96
2023/12/14 03:02:16;;;;;;;9.40;7.32;;;;;;;9.52;100.00;97308.31;4078422;29;20626;-94
2023/12/14 03:04:19;;;;;;;9.10;7.40;;;;;;;9.49;100.00;97311.16;4077236;29;20292;-93
2023/12/14 03:06:22;;;;;;;9.10;7.43;;;;;;;9.46;100.00;97303.59;4055515;29;20211;-95
2023/12/14 03:08:26;;;;;;;9.38;6.90;;;;;;;9.44;100.00;97308.06;4076922;29;20624;-94
2023/12/14 03:10:29;;;;;;;8.32;7.03;;;;;;;9.43;100.00;97315.06;4074325;29;20241;-95
2023/12/14 03:12:34;;;;;;;8.97;7.43;;;;;;;9.43;100.00;97316.84;4077512;29;20210;-94
2023/12/14 03:14:38;;;;;;;10.27;7.90;;;;;;;9.43;100.00;97314.22;4072686;29;20677;-94
2023/12/14 03:16:41;;;;;;;10.77;8.00;;;;;;;9.45;100.00;97328.75;4074662;29;21061;-94
2023/12/14 03:18:47;;;;;;;10.00;7.63;;;;;;;9.45;100.00;97327.94;4071462;29;21041;-93
2023/12/14 03:20:51;;;;;;;10.65;7.63;;;;;;;9.47;100.00;97334.69;4088484;28;20637;-93
2023/12/14 03:22:54;;;;;;;10.90;8.07;;;;;;;9.46;100.00;97334.81;4076470;29;20701;-95
2023/12/14 03:24:57;;;;;;;11.70;7.90;;;;;;;9.45;100.00;97333.16;4074927;29;20735;-93
2023/12/14 03:27:02;;;;;;;9.15;7.38;;;;;;;9.46;100.00;97338.25;4081193;29;20632;-94
2023/12/14 03:29:07;;;;;;;9.57;7.47;;;;;;;9.47;100.00;97345.13;4062493;29;20198;-94
2023/12/14 03:31:12;;;;;;;9.90;7.75;;;;;;;9.48;100.00;97348.53;4070829;29;20636;-91
2023/12/14 03:33:16;;;;;;;8.40;7.10;;;;;;;9.47;100.00;97355.53;4073741;29;20297;-95
2023/12/14 03:35:19;;;;;;;10.00;7.00;;;;;;;9.47;100.00;97352.91;4075939;29;20209;-95
2023/12/14 03:37:22;;;;;;;9.70;6.78;;;;;;;9.47;100.00;97362.47;4067509;29;20634;-96
2023/12/14 03:39:27;;;;;;;8.80;6.70;;;;;;;9.49;100.00;97363.22;4059970;29;20207;-96
2023/12/14 03:41:32;;;;;;;8.77;7.07;;;;;;;9.47;100.00;97363.34;4089929;29;20614;-95
2023/12/14 03:43:35;;;;;;;9.47;7.10;;;;;;;9.46;100.00;97371.25;4078221;29;20621;-92
2023/12/14 03:45:41;;;;;;;8.77;7.00;;;;;;;9.44;100.00;97363.56;4093349;28;20637;-95
2023/12/14 03:47:48;;;;;;;8.93;7.37;;;;;;;9.44;100.00;97370.53;4083214;29;20637;-96
2023/12/14 03:49:52;;;;;;;10.03;7.30;;;;;;;9.42;100.00;97372.41;4064189;29;20729;-94
2023/12/14 03:51:55;;;;;;;10.27;7.40;;;;;;;9.43;100.00;97379.28;4077453;29;21041;-93
2023/12/14 03:53:59;;;;;;;8.85;6.80;;;;;;;9.43;100.00;97382.72;4074457;29;20253;-94
2023/12/14 03:56:01;;;;;;;8.93;6.50;;;;;;;9.43;100.00;97390.53;4061423;29;20221;-96
2023/12/14 03:58:05;;;;;;;8.10;6.90;;;;;;;9.43;100.00;97387.09;4075274;29;20637;-96
2023/12/14 04:00:11;;;;;;;8.77;6.67;;;;;;;9.44;100.00;97397.41;4089555;28;21072;-95
2023/12/14 04:02:19;;;;;;;8.10;6.47;;;;;;;9.43;100.00;97394.91;4072503;29;21120;-95
2023/12/14 04:04:22;;;;;;;14.27;6.97;;;;;;;9.40;100.00;97398.56;4081853;29;20621;-96
2023/12/14 04:06:26;;;;;;;8.53;6.70;;;;;;;9.43;100.00;97408.75;4073740;29;20636;-93
2023/12/14 04:08:29;;;;;;;8.32;7.00;;;;;;;9.44;100.00;97410.41;4060806;29;20627;-95
2023/12/14 04:10:32;;;;;;;8.07;6.65;;;;;;;9.44;100.00;97412.16;4092996;28;20296;-93
2023/12/14 04:12:36;;;;;;;9.65;7.35;;;;;;;9.44;100.00;97419.97;4077954;29;20223;-92
2023/12/14 04:14:40;;;;;;;9.40;7.07;;;;;;;9.44;100.00;97415.59;4082254;29;20202;-96
2023/12/14 04:16:43;;;;;;;8.90;6.90;;;;;;;9.45;100.00;97426.84;4074853;29;20629;-96
2023/12/14 04:18:48;;;;;;;8.13;7.20;;;;;;;9.45;100.00;97421.63;4078971;29;20694;-95
2023/12/14 04:20:52;;;;;;;12.13;7.80;;;;;;;9.44;100.00;97423.41;4081784;29;21453;-95
2023/12/14 04:22:56;;;;;;;7.72;6.85;;;;;;;9.44;100.00;97426.03;4082385;29;20694;-95
2023/12/14 04:24:59;;;;;;;10.60;7.30;;;;;;;9.44;100.00;97431.22;4076336;29;20245;-94
2023/12/14 04:27:02;;;;;;;10.45;7.20;;;;;;;9.42;100.00;97430.50;4092799;28;20640;-94
2023/12/14 04:29:07;;;;;;;10.20;7.60;;;;;;;9.44;100.00;97436.44;4078788;29;20297;-94
2023/12/14 04:31:11;;;;;;;11.25;7.75;;;;;;;9.42;100.00;97434.88;4074108;29;20210;-92
2023/12/14 04:33:14;;;;;;;13.18;8.35;;;;;;;9.44;100.00;97451.19;4076154;29;20764;-94
2023/12/14 04:35:22;;;;;;;9.38;7.72;;;;;;;9.45;100.00;97451.09;4076855;29;20902;-94
2023/12/14 04:37:25;;;;;;;10.00;8.35;;;;;;;9.42;100.00;97453.91;4084306;29;20619;-94
2023/12/14 04:39:28;;;;;;;10.53;8.23;;;;;;;9.44;100.00;97457.25;4092709;28;20224;-94
2023/12/14 04:41:31;;;;;;;10.15;7.93;;;;;;;9.44;100.00;97453.78;4092410;28;20676;-93
2023/12/14 04:43:35;;;;;;;10.40;8.00;;;;;;;9.47;100.00;97466.59;4079805;29;20195;-94
2023/12/14 04:45:37;;;;;;;10.13;8.07;;;;;;;9.46;100.00;97465.75;4091335;28;20683;-94
2023/12/14 04:47:40;;;;;;;11.43;8.35;;;;;;;9.48;100.00;97471.69;4073142;29;20218;-92
2023/12/14 04:49:44;;;;;;;12.03;9.10;;;;;;;9.48;100.00;97476.06;4077420;29;20202;-94
2023/12/14 04:51:51;;;;;;;9.90;7.97;;;;;;;9.50;100.00;97482.81;4076215;29;20673;-95
2023/12/14 04:53:55;;;;;;;9.32;7.55;;;;;;;9.50;100.00;97475.00;4063967;29;20249;-93
2023/12/14 04:55:58;;;;;;;9.77;8.40;;;;;;;9.52;100.00;97472.31;4078310;29;20205;-96
2023/12/14 04:58:02;;;;;;;8.80;7.45;;;;;;;9.52;100.00;97473.13;4090806;28;20661;-96
2023/12/14 05:00:07;;;;;;;10.05;7.18;;;;;;;9.52;100.00;97480.09;4079571;29;20202;-91
2023/12/14 05:02:11;;;;;;;9.47;8.17;;;;;;;9.51;100.00;97479.25;4066390;29;20248;-94
2023/12/14 05:04:16;;;;;;;10.20;7.90;;;;;;;9.50;100.00;97475.00;4080721;29;21154;-96
2023/12/14 05:06:20;;;;;;;12.50;7.82;;;;;;;9.51;100.00;97483.63;4075877;29;20732;-95
2023/12/14 05:08:25;;;;;;;11.80;8.30;;;;;;;9.51;100.00;97488.84;4065069;29;20195;-94
2023/12/14 05:10:28;;;;;;;10.57;7.97;;;;;;;9.50;100.00;97484.56;4072206;29;21001;-95
2023/12/14 05:12:32;;;;;;;10.87;8.67;;;;;;;9.50;100.00;97490.63;4062552;29;20230;-95
2023/12/14 05:14:35;;;;;;;11.83;8.50;;;;;;;9.51;100.00;97497.47;4080898;29;21012;-96
2023/12/14 05:16:40;;;;;;;8.30;7.20;;;;;;;9.50;100.00;97497.59;4077259;29;20626;-96
2023/12/14 05:18:45;;;;;;;9.10;8.00;;;;;;;9.53;100.00;97507.78;4083199;29;20635;-95
2023/12/14 05:20:48;;;;;;;13.07;8.45;;;;;;;9.51;100.00;97507.88;4066271;29;20635;-96
2023/12/14 05:22:52;;;;;;;11.97;8.90;;;;;;;9.54;100.00;97505.06;4082957;29;20240;-96
2023/12/14 05:24:57;;;;;;;10.13;8.00;;;;;;;9.54;100.00;97517.25;4091202;28;20719;-95
2023/12/14 05:27:00;;;;;;;11.40;8.90;;;;;;;9.54;100.00;97518.06;4078268;29;20863;-95
2023/12/14 05:29:03;;;;;;;11.90;8.70;;;;;;;9.54;100.00;97514.66;4074350;29;20234;-93
2023/12/14 05:31:06;;;;;;;11.27;9.15;;;;;;;9.55;100.00;97524.13;4090864;28;20205;-96
2023/12/14 05:33:08;;;;;;;11.50;8.80;;;;;;;9.57;100.00;97527.44;4093895;28;20322;-94
2023/12/14 05:35:15;;;;;;;10.70;8.45;;;;;;;9.57;100.00;97532.66;4076437;29;21287;-96
2023/12/14 05:37:21;;;;;;;10.52;8.73;;;;;;;9.53;100.00;97533.81;4091806;28;20732;-96
2023/12/14 05:39:25;;;;;;;10.23;8.32;;;;;;;9.53;100.00;97537.25;4067077;29;20211;-96
2023/12/14 05:41:41;;;;;;;10.03;8.30;;;;;;;9.54;100.00;97538.06;4081972;29;20201;-96
2023/12/14 05:43:45;;;;;;;10.40;8.30;;;;;;;9.52;100.00;97552.97;4095967;28;20645;-93
2023/12/14 05:45:48;;;;;;;10.50;8.07;;;;;;;9.56;100.00;97559.59;4058524;29;20651;-95
2023/12/14 05:47:52;;;;;;;10.52;8.57;;;;;;;9.55;100.00;97563.19;4063681;29;20223;-95
2023/12/14 05:49:54;;;;;;;10.77;8.50;;;;;;;9.49;100.00;97561.00;4075344;29;20265;-94
2023/12/14 05:52:00;;;;;;;11.40;9.07;;;;;;;9.45;100.00;97567.38;4065956;29;20639;-94
2023/12/14 05:54:05;;;;;;;12.30;9.25;;;;;;;9.44;100.00;97568.31;4064751;29;20203;-93
2023/12/14 05:56:08;;;;;;;12.00;9.03;;;;;;;9.44;100.00;97573.50;4060739;29;20215;-96
2023/12/14 05:58:15;;;;;;;11.03;9.07;;;;;;;9.45;100.00;97573.41;4094915;28;20664;-94
2023/12/14 06:00:20;;;;;;;12.07;9.10;;;;;;;9.50;100.00;97586.06;4063057;29;20702;-96
2023/12/14 06:02:23;;;;;;;11.33;10.13;;;;;;;9.50;100.00;97591.28;4078262;29;20630;-95
2023/12/14 06:04:27;;;;;;;10.10;8.48;;;;;;;9.48;100.00;97594.00;4090605;28;20629;-90
2023/12/14 06:06:30;;;;;;;13.80;9.10;;;;;;;9.49;100.00;97589.66;4073329;29;20760;-95
2023/12/14 06:08:32;;;;;;;12.60;9.25;;;;;;;9.49;100.00;97597.44;4078716;29;20637;-93
2023/12/14 06:10:36;;;;;;;11.20;8.37;;;;;;;9.49;100.00;97592.25;4063171;29;20636;-94
2023/12/14 06:12:40;;;;;;;11.10;9.07;;;;;;;9.49;100.00;97597.44;4092654;28;20669;-96
2023/12/14 06:14:45;;;;;;;12.97;9.87;;;;;;;9.46;100.00;97600.28;4076414;29;20214;-94
2023/12/14 06:16:47;;;;;;;11.90;9.20;;;;;;;9.49;100.00;97610.47;4087179;28;21279;-92
2023/12/14 06:18:51;;;;;;;11.93;9.55;;;;;;;9.48;100.00;97606.19;4073297;29;20715;-90
2023/12/14 06:20:54;;;;;;;14.05;9.63;;;;;;;9.48;100.00;97608.78;4078742;29;20201;-90
2023/12/14 06:22:58;;;;;;;18.15;10.30;;;;;;;9.49;100.00;97615.66;4093526;28;20272;-90
2023/12/14 06:25:00;;;;;;;11.80;9.30;;;;;;;9.47;100.00;97615.78;4063927;29;20249;-89
2023/12/14 06:27:04;;;;;;;13.43;10.27;;;;;;;9.46;100.00;97621.09;4073162;29;20631;-89
2023/12/14 06:29:06;;;;;;;12.52;9.30;;;;;;;9.44;100.00;97628.16;4077157;28;20220;-88
2023/12/14 06:31:15;;;;;;;13.70;9.23;;;;;;;9.43;100.00;97627.34;4090146;28;20260;-89
2023/12/14 06:33:17;;;;;;;14.10;10.40;;;;;;;9.45;100.00;97632.44;4089389;28;20769;-90
2023/12/14 06:35:21;;;;;;;14.85;10.60;;;;;;;9.42;100.00;97633.47;4076847;29;20318;-90
2023/12/14 06:37:25;;;;;;;14.57;11.40;;;;;;;9.42;100.00;97641.28;4072608;29;20199;-90
2023/12/14 06:39:28;;;;;;;20.15;12.82;;;;;;;9.42;100.00;97638.69;4073830;29;20300;-90
2023/12/14 06:41:31;;;;;;;18.80;12.05;;;;;;;9.43;100.00;97647.34;4076457;29;20639;-89
2023/12/14 06:43:33;;;;;;;14.97;11.50;;;;;;;9.42;100.00;97640.47;4071799;29;20701;-91
2023/12/14 06:45:38;;;;;;;14.68;11.00;;;;;;;9.48;100.00;97647.84;4069086;29;21314;-91
2023/12/14 06:47:43;;;;;;;16.95;11.55;;;;;;;9.47;100.00;97660.03;4073975;29;20209;-92
2023/12/14 06:49:47;;;;;;;17.08;11.77;;;;;;;9.47;100.00;97662.63;4077640;29;20206;-91
2023/12/14 06:51:50;;;;;;;16.65;12.10;;;;;;;9.48;100.00;97666.88;4076571;29;20214;-92
2023/12/14 06:53:53;;;;;;;17.00;11.00;;;;;;;9.48;100.00;97671.25;4095289;28;20704;-91
2023/12/14 06:55:56;;;;;;;18.20;11.95;;;;;;;9.45;100.00;97668.88;4075916;29;20901;-94
2023/12/14 06:58:00;;;;;;;15.60;11.35;;;;;;;9.40;100.00;97674.41;4075744;29;20218;-91
2023/12/14 07:00:04;;;;;;;17.03;10.67;;;;;;;9.39;100.00;97682.31;4064415;29;20207;-94
2023/12/14 07:02:08;;;;;;;18.13;12.20;;;;;;;9.42;100.00;97692.50;4058740;29;21220;-91
2023/12/14 07:04:13;;;;;;;18.40;12.55;;;;;;;9.43;100.00;97695.00;4071151;29;20233;-91
2023/12/14 07:06:21;;;;;;;16.47;12.07;;;;;;;9.44;100.00;97703.63;4090140;28;20206;-92
2023/12/14 07:08:24;;;;;;;19.90;14.52;;;;;;;9.43;100.00;97713.22;4076429;29;20634;-94
2023/12/14 07:10:27;;;;;;;18.48;13.75;;;;;;;9.39;100.00;97718.75;4081667;29;20202;-93
2023/12/14 07:12:31;;;;;;;17.67;11.30;;;;;;;9.33;100.00;97719.16;4082040;29;20238;-94
2023/12/14 07:14:35;;;;;;;17.42;11.90;;;;;;;9.36;100.00;97728.53;4074942;29;20721;-94
2023/12/14 07:16:38;;;;;;;15.97;11.17;;;;;;;9.38;100.00;97736.13;4081687;29;20240;-92
2023/12/14 07:18:42;;;;;;;18.37;12.90;;;;;;;9.42;100.00;97744.56;4097649;29;20621;-92
2023/12/14 07:20:47;;;;;;;19.13;12.40;;;;;;;9.42;100.00;97741.94;4081976;29;20729;-93
2023/12/14 07:22:50;;;;;;;16.13;12.23;;;;;;;9.37;100.00;97738.00;4065112;29;20644;-93
2023/12/14 07:24:54;;;;;;;19.40;11.60;;;;;;;9.34;100.00;97741.66;4063648;29;20746;-92
2023/12/14 07:27:02;;;;;;;17.00;12.45;;;;;;;9.33;100.00;97740.00;4096120;28;20305;-93
2023/12/14 07:29:06;;;;;;;18.80;12.68;;;;;;;9.32;100.00;97742.69;4076757;29;20210;-94
2023/12/14 07:31:09;;;;;;;16.80;11.97;;;;;;;9.34;100.00;97752.06;4066462;29;20207;-93
2023/12/14 07:33:12;;;;;;;18.03;12.50;;;;;;;9.39;100.00;97756.00;4079565;29;20662;-94
2023/12/14 07:35:16;;;;;;;18.45;12.85;;;;;;;9.42;100.00;97762.78;4081613;29;20665;-94
2023/12/14 07:37:21;;;;;;;16.80;12.20;;;;;;;9.44;100.00;97763.50;4079194;29;20202;-94
2023/12/14 07:39:24;;;;;;;19.13;11.50;;;;;;;9.45;100.00;97770.38;4075805;29;20651;-94
2023/12/14 07:41:29;;;;;;;16.00;11.57;;;;;;;9.47;100.00;97768.50;4071990;29;20629;-93
2023/12/14 07:43:33;;;;;;;14.15;11.05;;;;;;;9.48;100.00;97770.97;4078933;29;20205;-93
2023/12/14 07:45:37;;;;;;;17.97;12.07;;;;;;;9.49;100.00;97782.25;4091373;28;20228;-94
2023/12/14 07:47:42;;;;;;;16.65;11.73;;;;;;;9.48;100.00;97775.38;4093424;28;20995;-94
2023/12/14 07:49:45;;;;;;;18.58;13.20;;;;;;;9.50;100.00;97778.69;4061219;29;20281;-95
2023/12/14 07:51:49;;;;;;;17.33;12.15;;;;;;;9.52;100.00;97784.63;4074626;29;20972;-93
2023/12/14 07:53:52;;;;;;;19.70;13.30;;;;;;;9.54;100.00;97785.34;4073372;29;20629;-92
2023/12/14 07:55:58;;;;;;;18.73;12.70;;;;;;;9.53;100.00;97788.88;4079670;29;20567;-91
2023/12/14 07:58:01;;;;;;;17.15;12.18;;;;;;;9.52;100.00;97793.28;4081757;29;21180;-90
2023/12/14 08:00:10;;;;;;;23.00;13.20;;;;;;;9.55;100.00;97800.06;4088927;28;20198;-89
2023/12/14 08:02:13;;;;;;;21.10;13.00;;;;;;;9.54;100.00;97807.00;4095154;28;20639;-93
2023/12/14 08:04:16;;;;;;;18.50;11.90;;;;;;;9.53;100.00;97807.09;4080021;29;20203;-93
2023/12/14 08:06:19;;;;;;;15.93;11.43;;;;;;;9.53;100.00;97807.97;4067393;29;20271;-95
2023/12/14 08:08:22;;;;;;;15.67;11.73;;;;;;;9.53;100.00;97804.50;4066106;29;20213;-96
2023/12/14 08:10:29;;;;;;;18.30;12.50;;;;;;;9.55;100.00;97813.06;4083668;29;20726;-93
2023/12/14 08:12:31;;;;;;;22.63;12.53;;;;;;;9.55;100.00;97818.28;4076424;29;20202;-95
2023/12/14 08:14:37;;;;;;;17.55;13.13;;;;;;;9.59;100.00;97817.09;4077694;29;20729;-93
2023/12/14 08:16:40;;;;;;;22.40;13.57;;;;;;;9.61;100.00;97825.66;4077933;29;20313;-91
2023/12/14 08:18:45;;;;;;;17.57;11.93;;;;;;;9.65;100.00;97830.56;4079790;29;20744;-90
2023/12/14 08:20:49;;;;;;;18.23;12.50;;;;;;;9.66;100.00;97832.19;4064678;29;20635;-91
2023/12/14 08:22:52;;;;;;;19.90;13.32;;;;;;;9.67;100.00;97843.47;4064917;29;20207;-91
2023/12/14 08:24:55;;;;;;;22.38;12.60;;;;;;;9.70;100.00;97845.88;4073343;29;20670;-92
2023/12/14 08:26:59;;;;;;;29.47;18.60;;;;;;;9.72;100.00;97846.56;4076592;29;20203;-91
2023/12/14 08:29:02;;;;;;;21.33;14.30;;;;;;;9.75;100.00;97860.22;4068404;29;20864;-91
2023/12/14 08:31:04;;;;;;;19.77;14.32;;;;;;;9.78;100.00;97864.38;4056160;29;20627;-90
2023/12/14 08:33:07;;;;;;;18.75;12.75;;;;;;;9.80;100.00;97870.31;4091098;28;20212;-90
2023/12/14 08:35:10;;;;;;;20.60;13.53;;;;;;;9.82;100.00;97868.41;4081556;29;20370;-91
2023/12/14 08:37:13;;;;;;;19.30;13.70;;;;;;;9.84;100.00;97873.41;4092436;28;21258;-91
2023/12/14 08:39:16;;;;;;;23.53;15.83;;;;;;;9.85;100.00;97879.47;4095783;28;20633;-91
2023/12/14 08:41:20;;;;;;;21.80;14.50;;;;;;;9.85;100.00;97877.69;4065499;29;21247;-90
2023/12/14 08:43:24;;;;;;;19.07;12.60;;;;;;;9.85;100.00;97877.69;4066045;29;20630;-95
2023/12/14 08:45:29;;;;;;;19.83;12.07;;;;;;;9.89;100.00;97888.72;4063722;29;20706;-95
2023/12/14 08:47:32;;;;;;;19.20;11.97;;;;;;;9.92;100.00;97896.34;4064753;29;20741;-96
2023/12/14 08:49:36;;;;;;;20.60;12.97;;;;;;;9.93;100.00;97893.66;4084250;29;20622;-92
2023/12/14 08:51:43;;;;;;;17.93;12.70;;;;;;;9.97;100.00;97902.94;4084821;29;20703;-95
2023/12/14 08:53:47;;;;;;;19.38;13.63;;;;;;;10.00;100.00;97910.53;4084378;29;20640;-92
2023/12/14 08:55:50;;;;;;;19.02;12.85;;;;;;;10.03;100.00;97918.16;4077709;29;20210;-92
2023/12/14 08:57:54;;;;;;;21.43;12.73;;;;;;;10.07;100.00;97921.38;4064285;29;20297;-94
2023/12/14 08:59:59;;;;;;;21.03;14.00;;;;;;;10.09;100.00;97922.94;4066919;29;21193;-91
2023/12/14 09:02:02;;;;;;;19.33;13.73;;;;;;;10.10;100.00;97927.22;4095218;28;21042;-90
2023/12/14 09:04:06;;;;;;;17.63;12.67;;;;;;;10.13;100.00;97941.78;4098342;28;20618;-90
2023/12/14 09:06:09;;;;;;;21.80;15.20;;;;;;;10.12;100.00;97938.38;4082279;29;21019;-93
2023/12/14 09:08:13;;;;;;;20.57;14.77;;;;;;;10.14;100.00;97943.47;4073893;29;20648;-95
2023/12/14 09:10:17;;;;;;;21.73;14.53;;;;;;;10.12;100.00;97946.19;4068737;29;21055;-95
2023/12/14 09:12:19;;;;;;;21.50;14.10;;;;;;;10.10;100.00;97945.47;4081476;29;20628;-92
2023/12/14 09:14:22;;;;;;;31.40;20.17;;;;;;;10.11;100.00;97939.28;4080878;29;20705;-92
2023/12/14 09:16:27;;;;;;;30.37;21.03;;;;;;;10.13;100.00;97947.84;4064164;29;20627;-92
2023/12/14 09:18:30;;;;;;;23.97;16.40;;;;;;;10.15;100.00;97956.41;4064909;29;20645;-92
2023/12/14 09:20:35;;;;;;;27.90;19.20;;;;;;;10.20;100.00;97949.09;4061706;29;20623;-91
2023/12/14 09:22:37;;;;;;;23.07;15.47;;;;;;;10.29;100.00;97947.63;4083383;29;20637;-91
2023/12/14 09:24:40;;;;;;;28.57;16.17;;;;;;;10.36;100.00;97963.56;4080109;29;21086;-91
2023/12/14 09:26:44;;;;;;;23.13;16.42;;;;;;;10.43;100.00;97969.16;4081589;29;20626;-92
2023/12/14 09:28:47;;;;;;;25.17;15.83;;;;;;;10.46;100.00;97974.16;4078618;29;20268;-92
2023/12/14 09:30:51;;;;;;;37.13;23.73;;;;;;;10.49;100.00;97976.56;4080314;29;20681;-92
2023/12/14 09:32:56;;;;;;;38.70;25.43;;;;;;;10.50;100.00;97979.06;4066959;29;21044;-91
2023/12/14 09:34:59;;;;;;;24.47;15.20;;;;;;;10.51;100.00;97985.97;4081493;29;20660;-92
2023/12/14 09:37:05;;;;;;;24.50;15.27;;;;;;;10.50;100.00;97986.06;4079472;29;21226;-89